Terminal Aerodrome Forecast
Issued by NWS Amarillo, TX

Home | Current Version | Previous Version | Text Only | Print | Product List | Glossary On
Versions: 1 2 3 4 5 6 7 8 9 10 11 12 13 14 15 16
746
FTUS44 KAMA 031720
TAFDHT
TAF
KDHT 031720Z 0318/0418 35016KT P6SM SCT080
     FM040100 33008KT P6SM SKC
     FM041400 35010KT P6SM SKC=

USA.gov is the U.S. government's official web portal to all federal, state and local government web resources and services.